Time;durP1;ratioP1;P1;durP2;ratioP2;P2;SDS_P1;SDS_P2;PMS_P1;PMS_P2;Temp;Humidity;BMP_temperature;BMP_pressure;BME280_temperature;BME280_humidity;BME280_pressure;Samples;Min_cycle;Max_cycle;Signal;HPM_P1;HPM_P2
2023/06/14 00:01:25;;;;;;;12.30;11.30;;;19.80;79.90;;;;;;4955385;29;20452;-60
2023/06/14 00:03:50;;;;;;;12.43;11.43;;;19.70;79.30;;;;;;4956866;28;20170;-61
2023/06/14 00:06:18;;;;;;;11.97;10.97;;;19.60;78.70;;;;;;4956120;28;20177;-60
2023/06/14 00:08:43;;;;;;;12.00;11.00;;;19.60;78.60;;;;;;4956609;28;20443;-61
2023/06/14 00:11:09;;;;;;;12.90;11.87;;;19.60;78.30;;;;;;4955950;29;20944;-60
2023/06/14 00:13:35;;;;;;;11.73;10.20;;;19.60;77.70;;;;;;4956337;29;20268;-61
2023/06/14 00:16:00;;;;;;;12.17;11.07;;;19.60;77.70;;;;;;4955932;29;20205;-61
2023/06/14 00:18:29;;;;;;;11.90;10.87;;;19.50;78.10;;;;;;4955179;28;20217;-61
2023/06/14 00:20:55;;;;;;;11.87;10.93;;;19.60;78.30;;;;;;4956634;28;20170;-61
2023/06/14 00:23:21;;;;;;;11.17;10.27;;;19.60;77.50;;;;;;4955651;29;20405;-61
2023/06/14 00:25:47;;;;;;;11.70;10.70;;;19.50;77.90;;;;;;4955263;29;20560;-61
2023/06/14 00:28:13;;;;;;;12.53;11.57;;;19.40;77.90;;;;;;4954827;29;20185;-60
2023/06/14 00:30:39;;;;;;;11.40;10.50;;;19.30;78.20;;;;;;4956317;28;20433;-60
2023/06/14 00:33:05;;;;;;;11.97;11.00;;;19.30;78.90;;;;;;4955989;29;20181;-61
2023/06/14 00:35:31;;;;;;;10.97;10.07;;;19.30;78.80;;;;;;4954844;29;20428;-61
2023/06/14 00:37:57;;;;;;;11.67;10.70;;;19.30;79.00;;;;;;4955519;29;20465;-61
2023/06/14 00:40:23;;;;;;;11.43;10.43;;;19.30;79.10;;;;;;4955437;28;20732;-60
2023/06/14 00:42:49;;;;;;;11.60;10.67;;;19.30;79.20;;;;;;4955669;28;20420;-61
2023/06/14 00:45:15;;;;;;;11.80;10.63;;;19.30;78.90;;;;;;4953183;29;20472;-61
2023/06/14 00:47:42;;;;;;;11.10;10.20;;;19.30;78.90;;;;;;4954228;28;20516;-60
2023/06/14 00:50:10;;;;;;;11.30;10.50;;;19.40;79.10;;;;;;4956081;28;20455;-61
2023/06/14 00:52:36;;;;;;;11.17;10.37;;;19.40;78.50;;;;;;4955725;28;20411;-61
2023/06/14 00:55:02;;;;;;;11.63;10.73;;;19.40;79.50;;;;;;4954824;29;20432;-61
2023/06/14 00:57:29;;;;;;;11.00;10.00;;;19.40;78.30;;;;;;4953904;29;20428;-61
2023/06/14 00:59:55;;;;;;;10.90;10.00;;;19.40;77.60;;;;;;4955757;28;20479;-61
2023/06/14 01:02:21;;;;;;;11.70;10.70;;;19.40;77.90;;;;;;4954865;28;20412;-61
2023/06/14 01:04:49;;;;;;;11.10;10.20;;;19.40;78.10;;;;;;4955924;28;20512;-61
2023/06/14 01:07:42;;;;;;;11.20;10.40;;;19.40;77.50;;;;;;4953706;29;20433;-60
2023/06/14 01:10:21;;;;;;;11.10;10.30;;;19.40;77.80;;;;;;4955457;29;20794;-61
2023/06/14 01:12:58;;;;;;;11.53;10.63;;;19.40;78.00;;;;;;4955890;28;20417;-61
2023/06/14 01:15:27;;;;;;;10.80;9.80;;;19.40;78.30;;;;;;4954087;28;20448;-61
2023/06/14 01:17:53;;;;;;;11.13;10.10;;;19.30;78.00;;;;;;4955376;29;20417;-61
2023/06/14 01:20:21;;;;;;;12.37;11.37;;;19.30;78.40;;;;;;4954677;28;20420;-60
2023/06/14 01:22:52;;;;;;;12.10;11.13;;;19.30;79.20;;;;;;4954638;28;20456;-61
2023/06/14 01:25:20;;;;;;;12.00;11.10;;;19.30;79.00;;;;;;4954542;28;20420;-60
2023/06/14 01:27:49;;;;;;;12.97;11.73;;;19.20;79.30;;;;;;4954718;28;20420;-61
2023/06/14 01:30:16;;;;;;;12.60;11.60;;;19.20;79.70;;;;;;4954497;28;20484;-60
2023/06/14 01:32:42;;;;;;;11.50;10.40;;;19.20;79.80;;;;;;4953420;29;20765;-61
2023/06/14 01:35:08;;;;;;;11.57;10.77;;;19.10;79.60;;;;;;4955167;28;20420;-61
2023/06/14 01:37:35;;;;;;;11.97;11.03;;;19.10;79.50;;;;;;4953007;29;20494;-60
2023/06/14 01:40:03;;;;;;;12.37;11.37;;;18.90;79.20;;;;;;4953868;29;20605;-61
2023/06/14 01:42:30;;;;;;;12.67;11.23;;;18.90;79.90;;;;;;4954349;29;20439;-61
2023/06/14 01:44:56;;;;;;;11.90;10.90;;;18.70;80.00;;;;;;4954056;29;20948;-60
2023/06/14 01:47:22;;;;;;;11.73;10.73;;;18.70;80.20;;;;;;4952621;29;20433;-60
2023/06/14 01:49:48;;;;;;;12.63;11.53;;;18.70;80.50;;;;;;4935730;29;20417;-61
2023/06/14 01:52:14;;;;;;;11.80;10.80;;;18.60;80.80;;;;;;4941224;29;20459;-60
2023/06/14 01:54:41;;;;;;;11.80;10.90;;;18.60;80.60;;;;;;4954592;28;20197;-61
2023/06/14 01:57:08;;;;;;;11.03;10.17;;;18.50;80.80;;;;;;4954709;28;20197;-61
2023/06/14 01:59:34;;;;;;;11.53;10.63;;;18.50;81.20;;;;;;4953874;28;20444;-61
2023/06/14 02:02:03;;;;;;;11.40;10.50;;;18.40;81.50;;;;;;4954649;28;20885;-61
2023/06/14 02:04:28;;;;;;;10.63;9.73;;;18.40;81.60;;;;;;4953947;28;20484;-61
2023/06/14 02:06:54;;;;;;;11.77;10.77;;;18.40;83.00;;;;;;4954661;28;20881;-61
2023/06/14 02:09:20;;;;;;;12.33;11.30;;;18.50;82.30;;;;;;4953094;29;20228;-60
2023/06/14 02:11:46;;;;;;;12.60;11.47;;;18.60;82.30;;;;;;4954585;29;20264;-61
2023/06/14 02:14:11;;;;;;;11.63;10.80;;;18.60;82.20;;;;;;4954154;28;20191;-61
2023/06/14 02:16:38;;;;;;;11.77;10.93;;;18.60;82.20;;;;;;4952973;29;20280;-61
2023/06/14 02:19:05;;;;;;;12.00;11.10;;;18.60;82.60;;;;;;4953767;28;20228;-61
2023/06/14 02:21:31;;;;;;;11.80;10.80;;;18.60;83.20;;;;;;4952855;28;20429;-61
2023/06/14 02:23:58;;;;;;;13.33;12.20;;;18.60;83.40;;;;;;4954480;28;20416;-61
2023/06/14 02:26:24;;;;;;;12.70;11.53;;;18.50;83.00;;;;;;4953591;28;20173;-60
2023/06/14 02:28:50;;;;;;;12.40;11.30;;;18.60;83.10;;;;;;4954279;29;20487;-61
2023/06/14 02:31:16;;;;;;;12.93;11.83;;;18.60;83.50;;;;;;4953974;28;20173;-60
2023/06/14 02:33:42;;;;;;;12.20;11.10;;;18.60;84.30;;;;;;4953257;28;20460;-61
2023/06/14 02:36:07;;;;;;;12.60;11.50;;;18.60;84.30;;;;;;4954221;29;20495;-61
2023/06/14 02:38:33;;;;;;;11.83;10.83;;;18.50;84.60;;;;;;4952264;29;20672;-60
2023/06/14 02:41:00;;;;;;;11.80;10.80;;;18.50;85.30;;;;;;4954089;28;20173;-61
2023/06/14 02:43:25;;;;;;;13.13;12.03;;;18.50;84.50;;;;;;4953388;28;20189;-60
2023/06/14 02:45:52;;;;;;;10.90;10.00;;;18.50;84.00;;;;;;4953587;29;20464;-61
2023/06/14 02:48:17;;;;;;;11.70;10.60;;;18.40;83.90;;;;;;4953467;28;20263;-60
2023/06/14 02:50:43;;;;;;;12.37;11.37;;;18.40;82.70;;;;;;4953904;28;20496;-61
2023/06/14 02:53:09;;;;;;;11.20;10.40;;;18.20;83.40;;;;;;4954106;28;20251;-61
2023/06/14 02:55:39;;;;;;;11.20;10.33;;;18.10;82.90;;;;;;4952089;29;20177;-60
2023/06/14 02:58:05;;;;;;;11.00;10.10;;;18.10;84.60;;;;;;4954057;28;20284;-61
2023/06/14 03:00:31;;;;;;;10.57;9.87;;;18.10;84.10;;;;;;4953071;29;20900;-61
2023/06/14 03:02:57;;;;;;;12.23;11.00;;;18.10;84.80;;;;;;4952252;29;20416;-61
2023/06/14 03:05:23;;;;;;;10.80;9.90;;;18.10;83.80;;;;;;4952051;29;20256;-60
2023/06/14 03:07:50;;;;;;;12.13;10.47;;;18.10;83.40;;;;;;4951316;29;20196;-63
2023/06/14 03:10:16;;;;;;;10.57;9.67;;;18.10;83.80;;;;;;4954054;28;20409;-59
2023/06/14 03:12:41;;;;;;;11.20;10.23;;;18.10;83.70;;;;;;4953458;28;20417;-59
2023/06/14 03:15:08;;;;;;;11.33;10.43;;;18.10;84.40;;;;;;4953089;29;20439;-59
2023/06/14 03:17:35;;;;;;;11.60;10.70;;;18.20;84.60;;;;;;4953145;28;20221;-59
2023/06/14 03:20:01;;;;;;;10.43;9.73;;;18.20;85.10;;;;;;4953674;28;20467;-59
2023/06/14 03:22:28;;;;;;;10.27;9.57;;;18.30;84.30;;;;;;4951904;29;20416;-59
2023/06/14 03:24:54;;;;;;;10.30;9.50;;;18.30;84.20;;;;;;4953867;28;20439;-59
2023/06/14 03:27:20;;;;;;;11.80;10.90;;;18.30;84.10;;;;;;4956166;28;20404;-59
2023/06/14 03:29:46;;;;;;;11.43;10.47;;;18.20;84.40;;;;;;4957341;28;20417;-59
2023/06/14 03:32:12;;;;;;;11.33;10.33;;;18.20;84.10;;;;;;4957394;29;20181;-60
2023/06/14 03:34:41;;;;;;;10.93;10.10;;;18.20;84.50;;;;;;4955869;28;20301;-59
2023/06/14 03:37:06;;;;;;;11.40;10.27;;;18.20;84.20;;;;;;4957593;28;20188;-59
2023/06/14 03:39:32;;;;;;;9.73;9.03;;;18.20;82.90;;;;;;4956439;28;20456;-59
2023/06/14 03:41:58;;;;;;;13.77;12.67;;;18.10;82.80;;;;;;4957356;28;20177;-59
2023/06/14 03:44:26;;;;;;;10.77;9.90;;;18.10;83.20;;;;;;4956629;29;20471;-59
2023/06/14 03:46:52;;;;;;;10.87;10.07;;;18.10;83.30;;;;;;4956919;29;20236;-59
2023/06/14 03:49:17;;;;;;;11.10;10.17;;;18.10;83.20;;;;;;4957032;29;20910;-59
2023/06/14 03:51:43;;;;;;;11.77;10.70;;;18.10;83.50;;;;;;4956298;28;20209;-59
2023/06/14 03:54:09;;;;;;;11.27;10.27;;;18.10;83.60;;;;;;4956336;28;20181;-59
2023/06/14 03:56:35;;;;;;;10.67;9.77;;;18.00;83.80;;;;;;4955467;29;20173;-59
2023/06/14 03:59:02;;;;;;;9.30;8.60;;;18.00;83.50;;;;;;4956871;28;20264;-59
2023/06/14 04:01:29;;;;;;;10.10;9.30;;;18.00;83.80;;;;;;4955180;28;20904;-59
2023/06/14 04:03:58;;;;;;;10.70;9.90;;;18.00;83.80;;;;;;4956136;29;20520;-59
2023/06/14 04:06:24;;;;;;;10.43;9.53;;;18.00;84.00;;;;;;4955737;29;20785;-59
2023/06/14 04:08:51;;;;;;;10.33;9.53;;;18.10;84.20;;;;;;4956730;28;20428;-59
2023/06/14 04:11:17;;;;;;;10.17;9.27;;;18.10;84.30;;;;;;4955277;29;20901;-60
2023/06/14 04:13:43;;;;;;;13.53;12.40;;;18.10;83.40;;;;;;4955905;28;20412;-59
2023/06/14 04:16:09;;;;;;;9.70;9.00;;;18.10;83.20;;;;;;4956650;28;20204;-59
2023/06/14 04:18:35;;;;;;;8.87;8.17;;;18.20;84.30;;;;;;4955508;28;20495;-59
2023/06/14 04:21:01;;;;;;;10.37;9.57;;;18.30;83.50;;;;;;4955623;28;20302;-59
2023/06/14 04:23:28;;;;;;;10.07;8.70;;;18.30;82.50;;;;;;4955221;29;20177;-59
2023/06/14 04:25:53;;;;;;;12.67;11.67;;;18.30;81.90;;;;;;4956098;29;20185;-59
2023/06/14 04:28:19;;;;;;;11.40;10.40;;;18.20;82.90;;;;;;4956136;28;20413;-59
2023/06/14 04:30:47;;;;;;;11.13;10.20;;;18.20;83.20;;;;;;4955600;28;20272;-59
2023/06/14 04:33:13;;;;;;;10.47;9.67;;;18.10;83.40;;;;;;4954427;29;20184;-59
2023/06/14 04:35:40;;;;;;;10.23;9.20;;;17.90;83.80;;;;;;4955353;28;20421;-59
2023/06/14 04:38:09;;;;;;;21.77;19.50;;;18.00;84.90;;;;;;4956010;28;20874;-59
2023/06/14 04:40:42;;;;;;;10.27;9.37;;;18.10;84.00;;;;;;4954700;28;20432;-59
2023/06/14 04:43:15;;;;;;;10.30;9.30;;;18.10;83.40;;;;;;4955305;28;20432;-59
2023/06/14 04:45:40;;;;;;;9.40;8.47;;;18.00;83.30;;;;;;4951918;28;20612;-59
2023/06/14 04:48:06;;;;;;;10.00;9.10;;;17.90;84.30;;;;;;4954915;29;20474;-59
2023/06/14 04:50:32;;;;;;;10.37;9.57;;;18.00;84.70;;;;;;4955068;29;20264;-59
2023/06/14 04:52:59;;;;;;;9.70;8.90;;;18.00;84.80;;;;;;4955947;28;20546;-59
2023/06/14 04:55:29;;;;;;;10.00;9.00;;;18.10;84.60;;;;;;4955299;29;20729;-59
2023/06/14 04:57:55;;;;;;;15.53;13.93;;;18.10;84.50;;;;;;4955822;28;20459;-59
2023/06/14 05:00:21;;;;;;;10.67;9.77;;;18.10;84.20;;;;;;4955579;29;20496;-59
2023/06/14 05:02:49;;;;;;;11.83;10.83;;;18.10;84.00;;;;;;4954031;29;20185;-59
2023/06/14 05:05:15;;;;;;;11.00;10.10;;;18.10;83.40;;;;;;4955020;28;20180;-59
2023/06/14 05:07:41;;;;;;;14.00;12.53;;;18.10;83.60;;;;;;4955488;28;20408;-59
2023/06/14 05:10:07;;;;;;;23.07;8.90;;;18.20;84.00;;;;;;4956166;29;20427;-60
2023/06/14 05:12:34;;;;;;;11.37;10.30;;;18.40;86.40;;;;;;4955171;28;20181;-60
2023/06/14 05:14:59;;;;;;;11.47;10.37;;;18.50;89.80;;;;;;4955904;28;20413;-62
2023/06/14 05:17:27;;;;;;;9.80;8.80;;;18.50;91.30;;;;;;4955496;29;20545;-61
2023/06/14 05:19:55;;;;;;;9.40;8.23;;;18.70;89.20;;;;;;4962229;28;20555;-62
2023/06/14 05:22:21;;;;;;;8.67;7.97;;;19.00;87.20;;;;;;4955826;28;20909;-62
2023/06/14 05:24:48;;;;;;;9.03;8.33;;;19.20;87.70;;;;;;4954441;28;20417;-62
2023/06/14 05:27:14;;;;;;;10.33;9.43;;;19.40;83.60;;;;;;4955812;29;20405;-62
2023/06/14 05:29:40;;;;;;;10.03;7.80;;;19.60;82.20;;;;;;4955021;29;20436;-62
2023/06/14 05:32:06;;;;;;;9.97;9.17;;;19.60;85.20;;;;;;4955362;28;20420;-62
2023/06/14 05:34:31;;;;;;;10.20;9.17;;;19.80;88.40;;;;;;4954304;29;20432;-61
2023/06/14 05:36:57;;;;;;;10.17;9.27;;;20.00;90.50;;;;;;4955127;29;20409;-62
2023/06/14 05:39:24;;;;;;;9.87;9.00;;;20.20;87.30;;;;;;4955269;29;20664;-62
2023/06/14 05:41:49;;;;;;;10.43;9.53;;;20.40;88.00;;;;;;4955069;28;20250;-62
2023/06/14 05:44:16;;;;;;;8.93;8.23;;;20.60;85.50;;;;;;4954931;29;20779;-62
2023/06/14 05:46:43;;;;;;;8.63;7.83;;;20.70;81.40;;;;;;4954188;28;20428;-62
2023/06/14 05:49:09;;;;;;;8.50;7.57;;;20.90;84.70;;;;;;4953130;28;20271;-62
2023/06/14 05:51:35;;;;;;;8.60;7.93;;;21.00;85.00;;;;;;4950754;29;20456;-62
2023/06/14 05:54:00;;;;;;;9.07;8.43;;;21.20;85.50;;;;;;4952658;28;20436;-64
2023/06/14 05:56:26;;;;;;;9.43;8.40;;;21.30;81.50;;;;;;4953870;28;20515;-62
2023/06/14 05:58:52;;;;;;;8.43;7.60;;;21.50;85.10;;;;;;4955291;28;20736;-65
2023/06/14 06:01:18;;;;;;;8.00;7.30;;;21.60;77.20;;;;;;4955201;29;20185;-65
2023/06/14 06:03:45;;;;;;;8.70;7.90;;;21.60;78.90;;;;;;4954483;29;20220;-64
2023/06/14 06:06:12;;;;;;;10.60;9.70;;;21.70;79.00;;;;;;4955030;28;20504;-64
2023/06/14 06:08:38;;;;;;;8.43;7.73;;;21.80;78.10;;;;;;4954755;29;20404;-62
2023/06/14 06:11:04;;;;;;;8.23;7.43;;;21.80;73.80;;;;;;4955336;28;20455;-62
2023/06/14 06:13:30;;;;;;;7.60;7.00;;;21.60;77.00;;;;;;4954487;28;20419;-61
2023/06/14 06:15:56;;;;;;;8.27;7.47;;;21.70;78.00;;;;;;4954995;29;20405;-62
2023/06/14 06:18:21;;;;;;;9.50;8.70;;;21.90;78.00;;;;;;4954880;28;20224;-62
2023/06/14 06:20:47;;;;;;;8.50;7.90;;;22.00;77.10;;;;;;4954297;29;20672;-62
2023/06/14 06:23:13;;;;;;;8.47;7.83;;;22.10;77.00;;;;;;4954163;28;20188;-62
2023/06/14 06:25:40;;;;;;;7.73;6.50;;;22.20;75.90;;;;;;4953753;28;20185;-65
2023/06/14 06:28:06;;;;;;;8.07;7.37;;;22.30;75.90;;;;;;4953087;28;20185;-65
2023/06/14 06:30:32;;;;;;;7.37;6.57;;;22.30;71.90;;;;;;4952481;29;20458;-63
2023/06/14 06:32:58;;;;;;;7.53;6.83;;;22.20;71.90;;;;;;4953944;28;20792;-65
2023/06/14 06:35:24;;;;;;;6.93;6.53;;;22.10;72.30;;;;;;4953518;28;20184;-63
2023/06/14 06:37:49;;;;;;;6.90;6.50;;;21.90;72.00;;;;;;4953138;28;20189;-70
2023/06/14 06:40:15;;;;;;;7.23;6.63;;;21.80;71.60;;;;;;4953902;29;20455;-63
2023/06/14 06:42:41;;;;;;;7.30;6.80;;;21.60;73.50;;;;;;4953661;28;20189;-62
2023/06/14 06:45:07;;;;;;;7.60;7.00;;;21.50;74.10;;;;;;4954177;29;20243;-63
2023/06/14 06:47:33;;;;;;;7.37;6.97;;;21.50;74.20;;;;;;4953315;29;20761;-63
2023/06/14 06:49:59;;;;;;;9.13;8.50;;;21.40;75.70;;;;;;4954512;29;20419;-63
2023/06/14 06:52:24;;;;;;;7.80;7.10;;;21.30;73.90;;;;;;4953374;28;20265;-61
2023/06/14 06:54:54;;;;;;;6.73;5.90;;;21.30;75.30;;;;;;4952968;29;20243;-62
2023/06/14 06:57:22;;;;;;;9.87;9.27;;;21.30;73.10;;;;;;4952220;29;20180;-64
2023/06/14 06:59:49;;;;;;;6.10;5.70;;;21.20;73.30;;;;;;4954686;28;20867;-64
2023/06/14 07:02:15;;;;;;;6.30;5.80;;;21.20;72.80;;;;;;4957616;28;20483;-63
2023/06/14 07:04:41;;;;;;;5.27;4.90;;;21.20;74.10;;;;;;4955411;29;20428;-63
2023/06/14 07:07:06;;;;;;;6.93;6.33;;;21.30;74.20;;;;;;4954567;29;20184;-64
2023/06/14 07:09:32;;;;;;;8.83;8.23;;;21.30;74.80;;;;;;4956077;28;20440;-63
2023/06/14 07:11:58;;;;;;;6.30;5.93;;;21.30;72.70;;;;;;4939977;28;20268;-64
2023/06/14 07:14:24;;;;;;;6.70;6.30;;;21.40;74.80;;;;;;4948760;29;20517;-63
2023/06/14 07:16:50;;;;;;;6.30;5.80;;;21.50;74.40;;;;;;4938468;29;20261;-63
2023/06/14 07:19:16;;;;;;;7.93;7.30;;;21.50;73.20;;;;;;4953018;29;20200;-63
2023/06/14 07:21:41;;;;;;;8.47;7.73;;;21.50;72.50;;;;;;4951454;28;20531;-63
2023/06/14 07:24:07;;;;;;;6.20;5.70;;;21.70;73.50;;;;;;4955921;28;20197;-62
2023/06/14 07:26:35;;;;;;;4.80;4.50;;;21.70;72.80;;;;;;4954048;29;20519;-63
2023/06/14 07:29:01;;;;;;;4.43;4.10;;;21.80;72.50;;;;;;4956146;29;20928;-63
2023/06/14 07:31:27;;;;;;;6.07;5.73;;;21.80;72.40;;;;;;4957469;28;20901;-63
2023/06/14 07:33:53;;;;;;;5.90;5.60;;;21.80;70.20;;;;;;4957305;28;20468;-64
2023/06/14 07:36:18;;;;;;;5.10;4.80;;;21.90;72.10;;;;;;4957587;29;20177;-64
2023/06/14 07:38:45;;;;;;;5.13;4.83;;;22.00;73.40;;;;;;4957114;29;20201;-63
2023/06/14 07:41:11;;;;;;;5.90;5.57;;;22.00;70.30;;;;;;4957699;28;20177;-63
2023/06/14 07:43:37;;;;;;;6.63;6.33;;;22.10;69.70;;;;;;4957144;29;20732;-63
2023/06/14 07:46:02;;;;;;;6.47;5.97;;;22.20;71.90;;;;;;4957812;29;20550;-63
2023/06/14 07:48:29;;;;;;;5.33;5.03;;;22.20;70.60;;;;;;4957364;28;20228;-64
2023/06/14 07:50:55;;;;;;;4.60;4.20;;;22.30;70.80;;;;;;4956972;29;20445;-63
2023/06/14 07:53:21;;;;;;;6.33;5.73;;;22.40;72.40;;;;;;4956318;28;20199;-64
2023/06/14 07:55:47;;;;;;;4.53;4.23;;;22.50;70.30;;;;;;4957124;29;20169;-64
2023/06/14 07:58:13;;;;;;;5.23;4.83;;;22.60;72.30;;;;;;4957547;28;20673;-64
2023/06/14 08:00:39;;;;;;;4.80;4.47;;;22.70;69.60;;;;;;4956704;28;20400;-63
2023/06/14 08:03:05;;;;;;;4.90;4.60;;;22.80;69.90;;;;;;4957380;28;20590;-64
2023/06/14 08:05:31;;;;;;;5.27;4.97;;;22.90;67.40;;;;;;4957173;29;20358;-64
2023/06/14 08:07:56;;;;;;;6.20;5.90;;;22.80;65.60;;;;;;4956746;28;20561;-64
2023/06/14 08:10:23;;;;;;;4.10;3.80;;;22.80;67.60;;;;;;4955926;28;20177;-62
2023/06/14 08:12:51;;;;;;;3.43;3.30;;;22.90;65.50;;;;;;4954513;29;20181;-64
2023/06/14 08:15:18;;;;;;;4.97;4.67;;;23.00;65.80;;;;;;4956173;28;20463;-64
2023/06/14 08:17:44;;;;;;;4.40;4.20;;;23.10;65.10;;;;;;4953323;29;20429;-63
2023/06/14 08:20:10;;;;;;;4.37;4.07;;;23.20;65.30;;;;;;4937605;29;20996;-64
2023/06/14 08:22:36;;;;;;;4.37;4.07;;;23.20;64.10;;;;;;4944769;29;20939;-63
2023/06/14 08:25:03;;;;;;;7.20;6.83;;;23.20;64.80;;;;;;4956584;28;20440;-65
2023/06/14 08:27:29;;;;;;;4.83;4.37;;;23.20;61.40;;;;;;4956803;29;20405;-64
2023/06/14 08:29:56;;;;;;;4.10;3.90;;;23.20;62.30;;;;;;4956245;29;20661;-64
2023/06/14 08:32:22;;;;;;;4.90;4.70;;;23.30;60.60;;;;;;4956587;28;20425;-64
2023/06/14 08:34:48;;;;;;;5.33;4.93;;;23.30;60.60;;;;;;4955201;28;20455;-63
2023/06/14 08:37:14;;;;;;;5.20;4.90;;;23.40;62.40;;;;;;4956657;29;20896;-63
2023/06/14 08:39:40;;;;;;;5.17;4.87;;;23.40;62.20;;;;;;4955991;28;20209;-63
2023/06/14 08:42:07;;;;;;;4.40;4.00;;;23.40;60.60;;;;;;4955412;29;20180;-63
2023/06/14 08:44:33;;;;;;;4.87;4.37;;;23.60;61.70;;;;;;4956101;28;20275;-64
2023/06/14 08:47:05;;;;;;;5.90;5.60;;;23.60;61.10;;;;;;4956108;29;20432;-63
2023/06/14 08:49:32;;;;;;;4.50;4.20;;;23.70;59.30;;;;;;4956612;28;20543;-64
2023/06/14 08:51:59;;;;;;;4.10;3.80;;;23.80;58.30;;;;;;4955867;29;20506;-63
2023/06/14 08:54:35;;;;;;;3.83;3.53;;;23.80;60.60;;;;;;4956325;29;20430;-63
2023/06/14 08:57:04;;;;;;;5.03;4.63;;;24.00;60.20;;;;;;4956056;28;20439;-63
2023/06/14 08:59:33;;;;;;;4.33;4.03;;;24.00;59.10;;;;;;4956162;28;20456;-64
2023/06/14 09:02:00;;;;;;;4.37;4.13;;;24.10;60.00;;;;;;4955641;28;20421;-63
2023/06/14 09:04:29;;;;;;;6.20;5.73;;;24.20;58.70;;;;;;4955546;28;20428;-64
2023/06/14 09:06:55;;;;;;;5.83;5.40;;;24.30;59.60;;;;;;4955506;28;20405;-63
2023/06/14 09:09:22;;;;;;;3.90;3.70;;;24.40;59.70;;;;;;4956127;28;20416;-63
2023/06/14 09:11:50;;;;;;;3.87;3.67;;;24.40;61.20;;;;;;4955699;29;20428;-63
2023/06/14 09:14:16;;;;;;;4.43;4.13;;;24.50;60.00;;;;;;4955940;29;20516;-62
2023/06/14 09:16:41;;;;;;;5.17;4.77;;;24.60;59.50;;;;;;4955231;29;20499;-63
2023/06/14 09:19:07;;;;;;;4.73;4.43;;;24.60;60.00;;;;;;4955762;29;20644;-63
2023/06/14 09:21:37;;;;;;;4.63;4.13;;;24.70;60.10;;;;;;4955799;29;20186;-64
2023/06/14 09:24:04;;;;;;;4.53;4.23;;;24.60;60.10;;;;;;4955154;28;20504;-64
2023/06/14 09:26:30;;;;;;;3.83;3.37;;;24.70;59.50;;;;;;4955747;28;20917;-64
2023/06/14 09:28:55;;;;;;;5.40;5.10;;;24.80;60.40;;;;;;4953728;29;20416;-63
2023/06/14 09:31:24;;;;;;;4.53;4.23;;;24.90;62.10;;;;;;4955236;28;20179;-63
2023/06/14 09:33:51;;;;;;;4.33;4.13;;;25.00;58.50;;;;;;4953866;28;20184;-64
2023/06/14 09:36:25;;;;;;;4.57;4.27;;;25.10;61.60;;;;;;4955750;29;20451;-64
2023/06/14 09:38:57;;;;;;;4.97;4.67;;;25.30;61.90;;;;;;4954927;28;20452;-64
2023/06/14 09:41:39;;;;;;;8.00;6.80;;;25.50;61.10;;;;;;4955301;29;20445;-64
2023/06/14 09:44:07;;;;;;;7.20;3.80;;;25.50;58.80;;;;;;4955505;28;20465;-63
2023/06/14 09:46:34;;;;;;;4.20;3.90;;;25.50;59.60;;;;;;4954648;29;20436;-63
2023/06/14 09:49:01;;;;;;;3.60;3.50;;;25.50;59.30;;;;;;4953571;29;20718;-63
2023/06/14 09:51:28;;;;;;;4.53;4.27;;;25.60;56.70;;;;;;4955070;29;20901;-64
2023/06/14 09:54:00;;;;;;;4.30;4.00;;;25.40;57.10;;;;;;4954115;29;20405;-63
2023/06/14 09:56:34;;;;;;;5.63;5.43;;;25.50;57.80;;;;;;4954928;29;20432;-64
2023/06/14 09:59:03;;;;;;;4.83;4.07;;;25.60;58.30;;;;;;4954423;29;20476;-64
2023/06/14 10:01:31;;;;;;;4.20;3.90;;;25.70;57.60;;;;;;4955141;29;20504;-64
2023/06/14 10:04:04;;;;;;;4.40;3.83;;;25.80;57.70;;;;;;4954571;29;20532;-63
2023/06/14 10:06:31;;;;;;;5.43;3.90;;;25.80;58.00;;;;;;4955066;28;20484;-64
2023/06/14 10:09:01;;;;;;;4.83;4.53;;;26.00;58.40;;;;;;4953909;29;20754;-64
2023/06/14 10:11:28;;;;;;;3.83;3.60;;;26.00;58.10;;;;;;4954563;28;20476;-64
2023/06/14 10:13:56;;;;;;;6.30;5.80;;;25.90;57.60;;;;;;4954207;28;20420;-64
2023/06/14 10:16:37;;;;;;;3.80;3.50;;;25.90;57.30;;;;;;4953670;29;20428;-64
2023/06/14 10:19:28;;;;;;;5.63;5.33;;;26.00;58.20;;;;;;4954026;28;20959;-64
2023/06/14 10:22:18;;;;;;;5.10;4.70;;;26.10;57.20;;;;;;4954342;28;20417;-64
2023/06/14 10:24:45;;;;;;;4.80;4.60;;;26.20;58.80;;;;;;4954301;28;20452;-63
2023/06/14 10:27:14;;;;;;;3.80;3.60;;;26.10;56.10;;;;;;4954776;29;20761;-64
2023/06/14 10:29:58;;;;;;;5.20;5.00;;;26.20;59.30;;;;;;4954761;29;20459;-64
2023/06/14 10:32:25;;;;;;;4.00;3.80;;;26.30;56.60;;;;;;4954744;28;20409;-64
2023/06/14 10:35:01;;;;;;;4.10;3.80;;;26.20;56.60;;;;;;4953664;29;20432;-63
2023/06/14 10:37:27;;;;;;;3.90;3.70;;;26.30;58.70;;;;;;4954946;29;20404;-64
2023/06/14 10:39:53;;;;;;;5.77;4.60;;;26.30;57.40;;;;;;4954042;28;20539;-62
2023/06/14 10:42:19;;;;;;;4.33;3.87;;;26.40;56.90;;;;;;4954773;28;20931;-63
2023/06/14 10:44:50;;;;;;;4.00;3.80;;;26.30;57.30;;;;;;4953041;29;20491;-63
2023/06/14 10:47:34;;;;;;;4.70;4.40;;;26.30;58.40;;;;;;4954304;29;20404;-64
2023/06/14 10:50:13;;;;;;;4.10;3.80;;;26.40;58.40;;;;;;4953906;29;20416;-64
2023/06/14 10:52:41;;;;;;;7.73;7.13;;;26.60;57.80;;;;;;4954508;29;20435;-64
2023/06/14 10:55:11;;;;;;;11.63;8.30;;;26.70;58.20;;;;;;4953660;28;20408;-63
2023/06/14 10:57:56;;;;;;;4.87;4.23;;;26.80;55.80;;;;;;4954684;28;20413;-64
2023/06/14 11:00:25;;;;;;;3.87;3.67;;;26.80;57.00;;;;;;4954062;28;20928;-64
2023/06/14 11:03:15;;;;;;;3.73;3.53;;;26.70;56.00;;;;;;4953696;28;20448;-63
2023/06/14 11:05:47;;;;;;;5.33;4.93;;;26.70;57.40;;;;;;4954270;29;20408;-64
2023/06/14 11:08:31;;;;;;;3.70;3.50;;;26.60;55.30;;;;;;4953271;29;20507;-63
2023/06/14 11:11:05;;;;;;;3.90;3.60;;;26.40;56.40;;;;;;4953614;29;20409;-64
2023/06/14 11:13:31;;;;;;;5.20;4.90;;;26.50;58.90;;;;;;4954331;29;20761;-64
2023/06/14 11:15:58;;;;;;;5.63;5.23;;;26.60;57.00;;;;;;4952435;29;20475;-64
2023/06/14 11:18:29;;;;;;;5.10;4.70;;;26.60;58.10;;;;;;4953782;28;20208;-63
2023/06/14 11:20:55;;;;;;;4.27;4.07;;;26.70;56.20;;;;;;4953701;29;20432;-63
2023/06/14 11:23:23;;;;;;;4.80;4.50;;;26.70;57.50;;;;;;4954413;29;20443;-64
2023/06/14 11:25:52;;;;;;;5.53;5.23;;;26.80;58.50;;;;;;4952411;29;20181;-63
2023/06/14 11:28:19;;;;;;;5.10;4.90;;;26.90;57.40;;;;;;4953942;29;20828;-64
2023/06/14 11:30:46;;;;;;;4.60;4.40;;;27.10;58.70;;;;;;4954073;28;20421;-64
2023/06/14 11:33:18;;;;;;;5.10;4.80;;;27.20;57.00;;;;;;4954137;28;20471;-61
2023/06/14 11:35:44;;;;;;;5.13;4.73;;;27.20;56.30;;;;;;4954123;29;20397;-62
2023/06/14 11:38:10;;;;;;;4.50;4.30;;;27.20;55.90;;;;;;4953461;29;20405;-61
2023/06/14 11:40:38;;;;;;;4.93;4.63;;;27.30;56.50;;;;;;4953391;29;20409;-63
2023/06/14 11:43:04;;;;;;;5.27;4.87;;;27.20;55.90;;;;;;4953621;29;20802;-64
2023/06/14 11:45:30;;;;;;;5.67;5.10;;;27.20;56.30;;;;;;4954078;28;20467;-64
2023/06/14 11:47:57;;;;;;;5.00;4.57;;;27.20;56.10;;;;;;4956369;28;20737;-63
2023/06/14 11:50:24;;;;;;;4.80;4.60;;;27.20;55.10;;;;;;4957582;29;20463;-63
2023/06/14 11:53:03;;;;;;;5.83;5.20;;;27.10;55.00;;;;;;4956934;29;20413;-63
2023/06/14 11:55:29;;;;;;;4.80;4.60;;;27.10;55.70;;;;;;4957434;28;20401;-64
2023/06/14 11:57:55;;;;;;;5.47;5.17;;;27.00;56.10;;;;;;4956489;29;20413;-63
2023/06/14 12:00:25;;;;;;;5.37;5.00;;;27.10;57.40;;;;;;4957203;28;20615;-63
2023/06/14 12:02:55;;;;;;;5.07;4.77;;;27.10;57.20;;;;;;4956728;29;20431;-63
2023/06/14 12:05:22;;;;;;;5.43;4.93;;;27.20;55.40;;;;;;4957357;29;20429;-64
2023/06/14 12:07:50;;;;;;;5.03;4.57;;;27.20;56.90;;;;;;4957238;29;20405;-61
2023/06/14 12:10:16;;;;;;;4.60;4.30;;;27.30;56.70;;;;;;4956023;29;20424;-64
2023/06/14 12:12:42;;;;;;;5.17;4.73;;;27.50;56.00;;;;;;4956034;28;20528;-64
2023/06/14 12:15:11;;;;;;;4.27;4.03;;;27.50;56.20;;;;;;4955244;29;21011;-64
2023/06/14 12:17:41;;;;;;;4.73;4.43;;;27.50;53.80;;;;;;4956153;29;20932;-64
2023/06/14 12:20:13;;;;;;;5.17;4.87;;;27.40;54.40;;;;;;4956368;28;20507;-63
2023/06/14 12:22:56;;;;;;;4.80;4.50;;;27.40;56.10;;;;;;4957257;29;20411;-64
2023/06/14 12:25:33;;;;;;;4.30;4.00;;;27.50;56.40;;;;;;4956946;28;20413;-64
2023/06/14 12:28:03;;;;;;;4.57;4.37;;;27.40;55.50;;;;;;4956307;28;20440;-63
2023/06/14 12:30:29;;;;;;;5.70;5.20;;;27.40;55.30;;;;;;4956783;29;20399;-63
2023/06/14 12:32:55;;;;;;;4.80;4.60;;;27.50;55.40;;;;;;4955323;29;20928;-64
2023/06/14 12:35:21;;;;;;;4.60;4.37;;;27.40;54.40;;;;;;4956861;29;20181;-64
2023/06/14 12:37:46;;;;;;;5.00;4.70;;;27.40;54.70;;;;;;4955925;28;20268;-62
2023/06/14 12:40:13;;;;;;;4.80;4.60;;;27.40;54.50;;;;;;4954729;29;20224;-62
2023/06/14 12:42:40;;;;;;;5.07;4.87;;;27.30;55.30;;;;;;4956392;29;20204;-62